Etusivu
METAR-TAF:

METAR-TAF

Lentoasemat :

Santa Ana del Yacuma, Bolivia

Leveyspiiri: 13-46S, Pituuspiiri: 065-26W, korkeus merenpinnasta: 144 m

Tämänhetkinen sää

Tämä raportti tehtiin 25 minuuttia sitten, kello 16.00 UTC
Tuuli 8 kn etelästä
Lämpötila 22°C
Kosteus 94%
Ilmanpaine 1017 hPa
Näkyvyys: 6000 m
Hajanaisia pilviä 500 ft:n korkeudessa
Hajonneita pilviä 1500 ft:n korkeudessa
heikkoa tihkusadetta,

METAR: SLSA 181600Z 18008KT 6000 -DZ SCT005 BKN015 22/21 Q1017

Aika: 12:25 (16:25 UTC)


TAF: puuttuu

Säähavainnot ja -ennusteet yli 4000 lentoasemalta (METAR- ja TAF-raportit).

Käytössä olevat sääasemat on merkitty karttaan keltaisilla ja punaisilla pisteillä.

Aseta hiiri pisteen päälle nähdäksesi sääaseman nimen.

Klikkaa sitten nähdäksesi säähavainnot ja -ennusteet.

Kartan vaihtaminen: klikkaa mustalla rastilla varustettuja vihreitä pisteitä, niin voit zoomata sisään; viivalla varustettua vihreää pistettä, niin voit zoomata ulos tai vihreitä nuolia, niin pääset viereisille kartoille.


METAR-TAF: